sensor_id;sensor_type;location;lat;lon;timestamp;P1;durP1;ratioP1;P2;durP2;ratioP2
19879;SDS011;10102;50.828;4.416;2022-12-07T00:00:30;17.92;;;11.57;;
19879;SDS011;10102;50.828;4.416;2022-12-07T00:02:55;20.10;;;11.52;;
19879;SDS011;10102;50.828;4.416;2022-12-07T00:05:21;24.77;;;11.77;;
19879;SDS011;10102;50.828;4.416;2022-12-07T00:07:47;17.08;;;12.02;;
19879;SDS011;10102;50.828;4.416;2022-12-07T00:10:12;19.88;;;12.85;;
19879;SDS011;10102;50.828;4.416;2022-12-07T00:12:38;23.10;;;12.93;;
19879;SDS011;10102;50.828;4.416;2022-12-07T00:15:04;19.88;;;12.70;;
19879;SDS011;10102;50.828;4.416;2022-12-07T00:17:30;25.45;;;14.15;;
19879;SDS011;10102;50.828;4.416;2022-12-07T00:19:55;25.60;;;13.68;;
19879;SDS011;10102;50.828;4.416;2022-12-07T00:22:21;21.92;;;13.10;;
19879;SDS011;10102;50.828;4.416;2022-12-07T00:24:46;18.90;;;12.52;;
19879;SDS011;10102;50.828;4.416;2022-12-07T00:27:12;22.10;;;14.05;;
19879;SDS011;10102;50.828;4.416;2022-12-07T00:29:38;20.05;;;12.68;;
19879;SDS011;10102;50.828;4.416;2022-12-07T00:32:03;22.42;;;13.50;;
19879;SDS011;10102;50.828;4.416;2022-12-07T00:34:29;21.55;;;13.60;;
19879;SDS011;10102;50.828;4.416;2022-12-07T00:36:55;19.40;;;13.20;;
19879;SDS011;10102;50.828;4.416;2022-12-07T00:39:20;22.67;;;12.88;;
19879;SDS011;10102;50.828;4.416;2022-12-07T00:41:46;24.92;;;13.57;;
19879;SDS011;10102;50.828;4.416;2022-12-07T00:44:12;26.73;;;14.38;;
19879;SDS011;10102;50.828;4.416;2022-12-07T00:46:38;23.95;;;14.65;;
19879;SDS011;10102;50.828;4.416;2022-12-07T00:49:03;22.75;;;14.52;;
19879;SDS011;10102;50.828;4.416;2022-12-07T00:51:29;21.05;;;13.75;;
19879;SDS011;10102;50.828;4.416;2022-12-07T00:53:55;23.20;;;14.60;;
19879;SDS011;10102;50.828;4.416;2022-12-07T00:56:22;23.33;;;14.77;;
19879;SDS011;10102;50.828;4.416;2022-12-07T01:01:26;23.38;;;14.00;;
19879;SDS011;10102;50.828;4.416;2022-12-07T01:03:53;23.83;;;14.00;;
19879;SDS011;10102;50.828;4.416;2022-12-07T01:06:19;22.77;;;14.10;;
19879;SDS011;10102;50.828;4.416;2022-12-07T01:08:46;23.80;;;15.35;;
19879;SDS011;10102;50.828;4.416;2022-12-07T01:11:16;23.70;;;13.55;;
19879;SDS011;10102;50.828;4.416;2022-12-07T01:13:43;23.08;;;13.93;;
19879;SDS011;10102;50.828;4.416;2022-12-07T01:16:10;24.17;;;14.88;;
19879;SDS011;10102;50.828;4.416;2022-12-07T01:18:39;20.70;;;13.65;;
19879;SDS011;10102;50.828;4.416;2022-12-07T01:21:06;26.70;;;13.75;;
19879;SDS011;10102;50.828;4.416;2022-12-07T01:23:35;26.95;;;14.50;;
19879;SDS011;10102;50.828;4.416;2022-12-07T01:26:03;22.58;;;14.18;;
19879;SDS011;10102;50.828;4.416;2022-12-07T01:28:31;23.70;;;14.00;;
19879;SDS011;10102;50.828;4.416;2022-12-07T01:31:07;22.13;;;14.57;;
19879;SDS011;10102;50.828;4.416;2022-12-07T01:33:36;22.50;;;13.88;;
19879;SDS011;10102;50.828;4.416;2022-12-07T01:36:14;21.17;;;14.05;;
19879;SDS011;10102;50.828;4.416;2022-12-07T01:38:42;23.75;;;13.80;;
19879;SDS011;10102;50.828;4.416;2022-12-07T01:41:08;21.98;;;13.80;;
19879;SDS011;10102;50.828;4.416;2022-12-07T01:43:34;20.55;;;13.77;;
19879;SDS011;10102;50.828;4.416;2022-12-07T01:46:01;22.40;;;13.27;;
19879;SDS011;10102;50.828;4.416;2022-12-07T01:48:32;28.65;;;14.93;;
19879;SDS011;10102;50.828;4.416;2022-12-07T01:51:02;24.17;;;13.85;;
19879;SDS011;10102;50.828;4.416;2022-12-07T01:53:33;23.55;;;14.25;;
19879;SDS011;10102;50.828;4.416;2022-12-07T01:56:01;23.40;;;13.73;;
19879;SDS011;10102;50.828;4.416;2022-12-07T01:58:27;23.70;;;13.30;;
19879;SDS011;10102;50.828;4.416;2022-12-07T02:00:53;25.00;;;12.73;;
19879;SDS011;10102;50.828;4.416;2022-12-07T02:03:24;21.75;;;13.27;;
19879;SDS011;10102;50.828;4.416;2022-12-07T02:05:54;21.63;;;13.73;;
19879;SDS011;10102;50.828;4.416;2022-12-07T02:08:21;25.75;;;13.55;;
19879;SDS011;10102;50.828;4.416;2022-12-07T02:10:47;22.30;;;13.48;;
19879;SDS011;10102;50.828;4.416;2022-12-07T02:13:14;20.23;;;13.40;;
19879;SDS011;10102;50.828;4.416;2022-12-07T02:21:11;20.73;;;13.60;;
19879;SDS011;10102;50.828;4.416;2022-12-07T02:29:29;20.55;;;13.40;;
19879;SDS011;10102;50.828;4.416;2022-12-07T02:32:21;22.75;;;12.77;;
19879;SDS011;10102;50.828;4.416;2022-12-07T02:35:06;20.42;;;12.98;;
19879;SDS011;10102;50.828;4.416;2022-12-07T02:37:44;20.85;;;12.88;;
19879;SDS011;10102;50.828;4.416;2022-12-07T02:45:40;19.83;;;12.05;;
19879;SDS011;10102;50.828;4.416;2022-12-07T02:48:07;17.70;;;11.88;;
19879;SDS011;10102;50.828;4.416;2022-12-07T02:50:35;18.10;;;11.77;;
19879;SDS011;10102;50.828;4.416;2022-12-07T02:53:00;23.80;;;12.48;;
19879;SDS011;10102;50.828;4.416;2022-12-07T02:55:31;19.25;;;11.07;;
19879;SDS011;10102;50.828;4.416;2022-12-07T03:00:29;18.83;;;11.30;;
19879;SDS011;10102;50.828;4.416;2022-12-07T03:03:04;19.02;;;11.27;;
19879;SDS011;10102;50.828;4.416;2022-12-07T03:10:50;19.45;;;10.15;;
19879;SDS011;10102;50.828;4.416;2022-12-07T03:16:16;17.75;;;10.68;;
19879;SDS011;10102;50.828;4.416;2022-12-07T03:21:23;17.17;;;10.25;;
19879;SDS011;10102;50.828;4.416;2022-12-07T03:24:03;15.52;;;9.20;;
19879;SDS011;10102;50.828;4.416;2022-12-07T03:26:38;19.42;;;10.38;;
19879;SDS011;10102;50.828;4.416;2022-12-07T03:29:11;16.52;;;10.05;;
19879;SDS011;10102;50.828;4.416;2022-12-07T03:31:46;15.70;;;9.57;;
19879;SDS011;10102;50.828;4.416;2022-12-07T03:34:24;16.40;;;9.98;;
19879;SDS011;10102;50.828;4.416;2022-12-07T03:37:06;11.30;;;8.85;;
19879;SDS011;10102;50.828;4.416;2022-12-07T03:39:53;13.85;;;9.80;;
19879;SDS011;10102;50.828;4.416;2022-12-07T03:42:27;16.58;;;9.85;;
19879;SDS011;10102;50.828;4.416;2022-12-07T03:44:53;16.33;;;10.27;;
19879;SDS011;10102;50.828;4.416;2022-12-07T03:47:22;17.08;;;10.95;;
19879;SDS011;10102;50.828;4.416;2022-12-07T03:50:04;17.80;;;9.70;;
19879;SDS011;10102;50.828;4.416;2022-12-07T03:52:53;17.92;;;9.38;;
19879;SDS011;10102;50.828;4.416;2022-12-07T03:55:34;18.45;;;9.45;;
19879;SDS011;10102;50.828;4.416;2022-12-07T03:58:03;14.60;;;8.88;;
19879;SDS011;10102;50.828;4.416;2022-12-07T04:00:31;15.02;;;9.13;;
19879;SDS011;10102;50.828;4.416;2022-12-07T04:02:57;17.10;;;10.02;;
19879;SDS011;10102;50.828;4.416;2022-12-07T04:05:23;15.05;;;9.30;;
19879;SDS011;10102;50.828;4.416;2022-12-07T04:07:49;16.17;;;8.90;;
19879;SDS011;10102;50.828;4.416;2022-12-07T04:10:15;18.08;;;8.65;;
19879;SDS011;10102;50.828;4.416;2022-12-07T04:12:40;14.48;;;9.55;;
19879;SDS011;10102;50.828;4.416;2022-12-07T04:15:07;16.70;;;8.95;;
19879;SDS011;10102;50.828;4.416;2022-12-07T04:17:33;16.25;;;9.68;;
19879;SDS011;10102;50.828;4.416;2022-12-07T04:19:58;14.50;;;9.05;;
19879;SDS011;10102;50.828;4.416;2022-12-07T04:22:24;14.82;;;8.40;;
19879;SDS011;10102;50.828;4.416;2022-12-07T04:24:49;18.38;;;9.27;;
19879;SDS011;10102;50.828;4.416;2022-12-07T04:27:15;15.05;;;8.68;;
19879;SDS011;10102;50.828;4.416;2022-12-07T04:29:41;13.25;;;8.55;;
19879;SDS011;10102;50.828;4.416;2022-12-07T04:32:06;13.52;;;8.52;;
19879;SDS011;10102;50.828;4.416;2022-12-07T04:34:32;18.65;;;8.85;;
19879;SDS011;10102;50.828;4.416;2022-12-07T04:36:58;15.27;;;8.98;;
19879;SDS011;10102;50.828;4.416;2022-12-07T04:39:25;16.63;;;10.23;;
19879;SDS011;10102;50.828;4.416;2022-12-07T04:41:56;17.77;;;10.80;;
19879;SDS011;10102;50.828;4.416;2022-12-07T04:44:22;17.50;;;10.65;;
19879;SDS011;10102;50.828;4.416;2022-12-07T04:46:50;17.75;;;10.75;;
19879;SDS011;10102;50.828;4.416;2022-12-07T04:49:16;18.85;;;11.98;;
19879;SDS011;10102;50.828;4.416;2022-12-07T04:51:43;16.50;;;11.32;;
19879;SDS011;10102;50.828;4.416;2022-12-07T04:54:09;17.60;;;11.15;;
19879;SDS011;10102;50.828;4.416;2022-12-07T04:56:35;20.60;;;11.38;;
19879;SDS011;10102;50.828;4.416;2022-12-07T04:59:01;22.17;;;12.07;;
19879;SDS011;10102;50.828;4.416;2022-12-07T05:01:27;17.50;;;11.43;;
19879;SDS011;10102;50.828;4.416;2022-12-07T05:03:53;20.60;;;12.73;;
19879;SDS011;10102;50.828;4.416;2022-12-07T05:06:19;24.00;;;12.60;;
19879;SDS011;10102;50.828;4.416;2022-12-07T05:08:45;20.95;;;12.35;;
19879;SDS011;10102;50.828;4.416;2022-12-07T05:11:11;20.50;;;10.98;;
19879;SDS011;10102;50.828;4.416;2022-12-07T05:13:56;16.25;;;10.90;;
19879;SDS011;10102;50.828;4.416;2022-12-07T05:16:22;20.20;;;11.23;;
19879;SDS011;10102;50.828;4.416;2022-12-07T05:18:48;18.75;;;11.30;;
19879;SDS011;10102;50.828;4.416;2022-12-07T05:21:13;16.77;;;11.05;;
19879;SDS011;10102;50.828;4.416;2022-12-07T05:23:39;19.48;;;10.77;;
19879;SDS011;10102;50.828;4.416;2022-12-07T05:26:05;18.73;;;10.90;;
19879;SDS011;10102;50.828;4.416;2022-12-07T05:28:30;16.88;;;10.55;;
19879;SDS011;10102;50.828;4.416;2022-12-07T05:30:56;16.55;;;11.32;;
19879;SDS011;10102;50.828;4.416;2022-12-07T05:33:22;25.77;;;11.65;;
19879;SDS011;10102;50.828;4.416;2022-12-07T05:35:47;20.50;;;10.68;;
19879;SDS011;10102;50.828;4.416;2022-12-07T05:38:13;23.55;;;12.27;;
19879;SDS011;10102;50.828;4.416;2022-12-07T05:40:38;20.33;;;11.48;;
19879;SDS011;10102;50.828;4.416;2022-12-07T05:43:04;16.75;;;10.73;;
19879;SDS011;10102;50.828;4.416;2022-12-07T05:45:30;17.23;;;10.20;;
19879;SDS011;10102;50.828;4.416;2022-12-07T05:47:55;19.30;;;11.07;;
19879;SDS011;10102;50.828;4.416;2022-12-07T05:50:21;19.60;;;10.55;;
19879;SDS011;10102;50.828;4.416;2022-12-07T05:52:47;17.90;;;10.10;;
19879;SDS011;10102;50.828;4.416;2022-12-07T05:55:12;16.25;;;9.93;;
19879;SDS011;10102;50.828;4.416;2022-12-07T05:57:38;21.08;;;10.80;;
19879;SDS011;10102;50.828;4.416;2022-12-07T06:00:04;15.23;;;9.48;;
19879;SDS011;10102;50.828;4.416;2022-12-07T06:02:30;18.52;;;8.88;;
19879;SDS011;10102;50.828;4.416;2022-12-07T06:04:56;15.43;;;8.68;;
19879;SDS011;10102;50.828;4.416;2022-12-07T06:07:22;17.45;;;9.32;;
19879;SDS011;10102;50.828;4.416;2022-12-07T06:09:47;14.27;;;9.07;;
19879;SDS011;10102;50.828;4.416;2022-12-07T06:12:13;14.50;;;9.70;;
19879;SDS011;10102;50.828;4.416;2022-12-07T06:14:58;15.20;;;9.27;;
19879;SDS011;10102;50.828;4.416;2022-12-07T06:17:23;12.85;;;8.15;;
19879;SDS011;10102;50.828;4.416;2022-12-07T06:19:50;23.38;;;9.65;;
19879;SDS011;10102;50.828;4.416;2022-12-07T06:22:17;16.02;;;9.68;;
19879;SDS011;10102;50.828;4.416;2022-12-07T06:24:43;17.67;;;9.95;;
19879;SDS011;10102;50.828;4.416;2022-12-07T06:27:09;13.02;;;8.63;;
19879;SDS011;10102;50.828;4.416;2022-12-07T06:29:36;14.68;;;8.73;;
19879;SDS011;10102;50.828;4.416;2022-12-07T06:32:02;15.60;;;8.80;;
19879;SDS011;10102;50.828;4.416;2022-12-07T06:34:29;17.10;;;8.13;;
19879;SDS011;10102;50.828;4.416;2022-12-07T06:36:55;11.88;;;9.00;;
19879;SDS011;10102;50.828;4.416;2022-12-07T06:39:24;15.32;;;8.77;;
19879;SDS011;10102;50.828;4.416;2022-12-07T06:41:51;15.23;;;8.65;;
19879;SDS011;10102;50.828;4.416;2022-12-07T06:44:19;15.52;;;9.45;;
19879;SDS011;10102;50.828;4.416;2022-12-07T06:46:45;13.35;;;8.57;;
19879;SDS011;10102;50.828;4.416;2022-12-07T06:49:10;24.52;;;8.82;;
19879;SDS011;10102;50.828;4.416;2022-12-07T06:51:37;14.32;;;8.77;;
19879;SDS011;10102;50.828;4.416;2022-12-07T06:54:07;12.18;;;8.45;;
19879;SDS011;10102;50.828;4.416;2022-12-07T06:56:34;15.00;;;8.90;;
19879;SDS011;10102;50.828;4.416;2022-12-07T06:59:02;14.23;;;8.25;;
19879;SDS011;10102;50.828;4.416;2022-12-07T07:01:34;13.82;;;9.07;;
19879;SDS011;10102;50.828;4.416;2022-12-07T07:04:00;13.38;;;8.40;;
19879;SDS011;10102;50.828;4.416;2022-12-07T07:06:26;15.88;;;9.20;;
19879;SDS011;10102;50.828;4.416;2022-12-07T07:08:52;10.95;;;8.07;;
19879;SDS011;10102;50.828;4.416;2022-12-07T07:11:18;12.77;;;8.38;;
19879;SDS011;10102;50.828;4.416;2022-12-07T07:13:44;15.73;;;8.57;;
19879;SDS011;10102;50.828;4.416;2022-12-07T07:16:10;13.07;;;8.57;;
19879;SDS011;10102;50.828;4.416;2022-12-07T07:18:36;16.88;;;8.68;;
19879;SDS011;10102;50.828;4.416;2022-12-07T07:21:03;11.05;;;7.82;;
19879;SDS011;10102;50.828;4.416;2022-12-07T07:23:29;19.65;;;9.13;;
19879;SDS011;10102;50.828;4.416;2022-12-07T07:25:55;15.60;;;9.15;;
19879;SDS011;10102;50.828;4.416;2022-12-07T07:28:21;18.77;;;9.13;;
19879;SDS011;10102;50.828;4.416;2022-12-07T07:30:47;15.75;;;8.50;;
19879;SDS011;10102;50.828;4.416;2022-12-07T07:33:13;15.25;;;9.65;;
19879;SDS011;10102;50.828;4.416;2022-12-07T07:35:39;17.85;;;9.73;;
19879;SDS011;10102;50.828;4.416;2022-12-07T07:38:05;19.02;;;9.18;;
19879;SDS011;10102;50.828;4.416;2022-12-07T07:40:31;14.93;;;10.13;;
19879;SDS011;10102;50.828;4.416;2022-12-07T07:42:57;19.85;;;9.63;;
19879;SDS011;10102;50.828;4.416;2022-12-07T07:45:23;12.77;;;9.48;;
19879;SDS011;10102;50.828;4.416;2022-12-07T07:47:50;26.50;;;10.43;;
19879;SDS011;10102;50.828;4.416;2022-12-07T07:50:17;23.52;;;9.73;;
19879;SDS011;10102;50.828;4.416;2022-12-07T07:52:43;16.23;;;9.88;;
19879;SDS011;10102;50.828;4.416;2022-12-07T07:55:09;15.35;;;9.20;;
19879;SDS011;10102;50.828;4.416;2022-12-07T07:57:36;16.75;;;9.20;;
19879;SDS011;10102;50.828;4.416;2022-12-07T08:00:07;20.75;;;9.20;;
19879;SDS011;10102;50.828;4.416;2022-12-07T08:02:35;19.67;;;9.00;;
19879;SDS011;10102;50.828;4.416;2022-12-07T08:05:01;17.48;;;8.90;;
19879;SDS011;10102;50.828;4.416;2022-12-07T08:07:27;15.93;;;9.10;;
19879;SDS011;10102;50.828;4.416;2022-12-07T08:09:53;13.07;;;8.05;;
19879;SDS011;10102;50.828;4.416;2022-12-07T08:12:19;20.95;;;9.10;;
19879;SDS011;10102;50.828;4.416;2022-12-07T08:14:45;17.35;;;9.30;;
19879;SDS011;10102;50.828;4.416;2022-12-07T08:17:10;16.02;;;9.18;;
19879;SDS011;10102;50.828;4.416;2022-12-07T08:19:37;15.15;;;8.90;;
19879;SDS011;10102;50.828;4.416;2022-12-07T08:22:03;17.05;;;8.32;;
19879;SDS011;10102;50.828;4.416;2022-12-07T08:24:29;19.25;;;9.27;;
19879;SDS011;10102;50.828;4.416;2022-12-07T08:26:57;18.27;;;10.57;;
19879;SDS011;10102;50.828;4.416;2022-12-07T08:29:24;16.05;;;9.02;;
19879;SDS011;10102;50.828;4.416;2022-12-07T08:31:49;14.07;;;9.52;;
19879;SDS011;10102;50.828;4.416;2022-12-07T08:34:15;12.57;;;8.80;;
19879;SDS011;10102;50.828;4.416;2022-12-07T08:36:41;14.40;;;9.32;;
19879;SDS011;10102;50.828;4.416;2022-12-07T08:39:06;12.25;;;8.85;;
19879;SDS011;10102;50.828;4.416;2022-12-07T08:41:32;15.27;;;9.32;;
19879;SDS011;10102;50.828;4.416;2022-12-07T08:43:58;14.93;;;9.90;;
19879;SDS011;10102;50.828;4.416;2022-12-07T08:46:34;16.50;;;10.82;;
19879;SDS011;10102;50.828;4.416;2022-12-07T08:49:15;17.58;;;10.65;;
19879;SDS011;10102;50.828;4.416;2022-12-07T08:51:45;15.38;;;9.82;;
19879;SDS011;10102;50.828;4.416;2022-12-07T08:54:12;20.70;;;9.98;;
19879;SDS011;10102;50.828;4.416;2022-12-07T08:56:41;22.35;;;9.20;;
19879;SDS011;10102;50.828;4.416;2022-12-07T08:59:07;16.55;;;9.95;;
19879;SDS011;10102;50.828;4.416;2022-12-07T09:01:33;16.70;;;9.57;;
19879;SDS011;10102;50.828;4.416;2022-12-07T09:03:59;16.52;;;9.25;;
19879;SDS011;10102;50.828;4.416;2022-12-07T09:06:25;16.08;;;8.40;;
19879;SDS011;10102;50.828;4.416;2022-12-07T09:08:52;18.23;;;8.73;;
19879;SDS011;10102;50.828;4.416;2022-12-07T09:11:22;14.20;;;8.80;;
19879;SDS011;10102;50.828;4.416;2022-12-07T09:13:48;19.45;;;8.98;;
19879;SDS011;10102;50.828;4.416;2022-12-07T09:16:13;12.63;;;7.38;;
19879;SDS011;10102;50.828;4.416;2022-12-07T09:18:39;19.95;;;6.88;;
19879;SDS011;10102;50.828;4.416;2022-12-07T09:21:05;15.18;;;8.10;;
19879;SDS011;10102;50.828;4.416;2022-12-07T09:23:30;14.48;;;7.32;;
19879;SDS011;10102;50.828;4.416;2022-12-07T09:26:03;18.85;;;7.32;;
19879;SDS011;10102;50.828;4.416;2022-12-07T09:28:32;13.68;;;7.28;;
19879;SDS011;10102;50.828;4.416;2022-12-07T09:30:58;12.00;;;6.60;;
19879;SDS011;10102;50.828;4.416;2022-12-07T09:33:24;11.55;;;7.47;;
19879;SDS011;10102;50.828;4.416;2022-12-07T09:35:50;14.57;;;7.38;;
19879;SDS011;10102;50.828;4.416;2022-12-07T09:38:17;15.82;;;6.78;;
19879;SDS011;10102;50.828;4.416;2022-12-07T09:40:44;13.95;;;7.25;;
19879;SDS011;10102;50.828;4.416;2022-12-07T09:43:18;10.95;;;6.63;;
19879;SDS011;10102;50.828;4.416;2022-12-07T09:45:47;10.93;;;6.80;;
19879;SDS011;10102;50.828;4.416;2022-12-07T09:48:20;10.40;;;6.13;;
19879;SDS011;10102;50.828;4.416;2022-12-07T09:50:49;14.57;;;6.65;;
19879;SDS011;10102;50.828;4.416;2022-12-07T09:53:34;9.32;;;6.45;;
19879;SDS011;10102;50.828;4.416;2022-12-07T09:56:02;12.38;;;6.22;;
19879;SDS011;10102;50.828;4.416;2022-12-07T09:58:29;12.48;;;6.38;;
19879;SDS011;10102;50.828;4.416;2022-12-07T10:01:01;11.02;;;6.30;;
19879;SDS011;10102;50.828;4.416;2022-12-07T10:03:40;14.52;;;6.18;;
19879;SDS011;10102;50.828;4.416;2022-12-07T10:06:18;18.70;;;7.20;;
19879;SDS011;10102;50.828;4.416;2022-12-07T10:08:44;11.30;;;6.90;;
19879;SDS011;10102;50.828;4.416;2022-12-07T10:11:10;15.60;;;7.07;;
19879;SDS011;10102;50.828;4.416;2022-12-07T10:13:38;12.40;;;6.55;;
19879;SDS011;10102;50.828;4.416;2022-12-07T10:16:05;15.48;;;6.15;;
19879;SDS011;10102;50.828;4.416;2022-12-07T10:18:49;10.07;;;6.47;;
19879;SDS011;10102;50.828;4.416;2022-12-07T10:21:22;12.75;;;6.70;;
19879;SDS011;10102;50.828;4.416;2022-12-07T10:24:02;11.93;;;6.95;;
19879;SDS011;10102;50.828;4.416;2022-12-07T10:26:34;11.57;;;7.38;;
19879;SDS011;10102;50.828;4.416;2022-12-07T10:29:02;13.05;;;7.15;;
19879;SDS011;10102;50.828;4.416;2022-12-07T10:31:57;10.18;;;6.97;;
19879;SDS011;10102;50.828;4.416;2022-12-07T10:34:29;17.02;;;7.53;;
19879;SDS011;10102;50.828;4.416;2022-12-07T10:39:47;14.90;;;7.07;;
19879;SDS011;10102;50.828;4.416;2022-12-07T10:44:47;18.67;;;7.68;;
19879;SDS011;10102;50.828;4.416;2022-12-07T10:52:30;11.32;;;6.03;;
19879;SDS011;10102;50.828;4.416;2022-12-07T11:01:22;15.10;;;6.55;;
19879;SDS011;10102;50.828;4.416;2022-12-07T11:11:47;13.00;;;5.05;;
19879;SDS011;10102;50.828;4.416;2022-12-07T11:14:37;11.82;;;5.78;;
19879;SDS011;10102;50.828;4.416;2022-12-07T11:17:19;11.13;;;5.38;;
19879;SDS011;10102;50.828;4.416;2022-12-07T11:20:04;12.57;;;4.90;;
19879;SDS011;10102;50.828;4.416;2022-12-07T11:22:51;8.40;;;4.50;;
19879;SDS011;10102;50.828;4.416;2022-12-07T11:25:23;11.60;;;5.45;;
19879;SDS011;10102;50.828;4.416;2022-12-07T11:34:00;7.90;;;4.15;;
19879;SDS011;10102;50.828;4.416;2022-12-07T11:36:45;16.13;;;4.47;;
19879;SDS011;10102;50.828;4.416;2022-12-07T11:41:44;8.25;;;4.82;;
19879;SDS011;10102;50.828;4.416;2022-12-07T11:44:35;10.88;;;5.70;;
19879;SDS011;10102;50.828;4.416;2022-12-07T11:47:13;9.07;;;4.75;;
19879;SDS011;10102;50.828;4.416;2022-12-07T11:49:45;9.18;;;4.18;;
19879;SDS011;10102;50.828;4.416;2022-12-07T11:52:20;11.93;;;4.30;;
19879;SDS011;10102;50.828;4.416;2022-12-07T11:54:55;9.18;;;4.63;;
19879;SDS011;10102;50.828;4.416;2022-12-07T11:57:44;11.60;;;4.10;;
19879;SDS011;10102;50.828;4.416;2022-12-07T12:00:15;6.28;;;3.65;;
19879;SDS011;10102;50.828;4.416;2022-12-07T12:05:17;7.68;;;3.85;;
19879;SDS011;10102;50.828;4.416;2022-12-07T12:07:46;8.07;;;3.67;;
19879;SDS011;10102;50.828;4.416;2022-12-07T12:10:19;6.30;;;3.80;;
19879;SDS011;10102;50.828;4.416;2022-12-07T12:15:26;5.93;;;2.83;;
19879;SDS011;10102;50.828;4.416;2022-12-07T12:20:37;5.30;;;2.78;;
19879;SDS011;10102;50.828;4.416;2022-12-07T12:23:14;6.22;;;3.15;;
19879;SDS011;10102;50.828;4.416;2022-12-07T12:25:48;7.05;;;2.80;;
19879;SDS011;10102;50.828;4.416;2022-12-07T12:28:18;5.45;;;2.72;;
19879;SDS011;10102;50.828;4.416;2022-12-07T12:33:49;7.90;;;2.90;;
19879;SDS011;10102;50.828;4.416;2022-12-07T12:44:01;6.95;;;3.33;;
19879;SDS011;10102;50.828;4.416;2022-12-07T12:51:44;4.38;;;2.50;;
19879;SDS011;10102;50.828;4.416;2022-12-07T12:54:26;8.20;;;2.55;;
19879;SDS011;10102;50.828;4.416;2022-12-07T12:59:38;7.18;;;2.75;;
19879;SDS011;10102;50.828;4.416;2022-12-07T13:02:30;5.65;;;2.95;;
19879;SDS011;10102;50.828;4.416;2022-12-07T13:20:57;8.70;;;3.28;;
19879;SDS011;10102;50.828;4.416;2022-12-07T13:26:00;7.22;;;3.38;;
19879;SDS011;10102;50.828;4.416;2022-12-07T13:28:46;6.57;;;2.67;;
19879;SDS011;10102;50.828;4.416;2022-12-07T13:31:15;5.72;;;2.78;;
19879;SDS011;10102;50.828;4.416;2022-12-07T13:33:47;7.47;;;2.85;;
19879;SDS011;10102;50.828;4.416;2022-12-07T13:36:23;5.68;;;2.55;;
19879;SDS011;10102;50.828;4.416;2022-12-07T13:38:54;7.88;;;2.78;;
19879;SDS011;10102;50.828;4.416;2022-12-07T13:41:23;4.82;;;2.67;;
19879;SDS011;10102;50.828;4.416;2022-12-07T13:43:53;9.40;;;3.38;;
19879;SDS011;10102;50.828;4.416;2022-12-07T13:46:41;6.80;;;3.03;;
19879;SDS011;10102;50.828;4.416;2022-12-07T13:49:31;9.30;;;3.13;;
19879;SDS011;10102;50.828;4.416;2022-12-07T13:55:32;7.22;;;3.00;;
19879;SDS011;10102;50.828;4.416;2022-12-07T13:57:39;5.57;;;2.85;;
19879;SDS011;10102;50.828;4.416;2022-12-07T14:00:06;8.55;;;3.25;;
19879;SDS011;10102;50.828;4.416;2022-12-07T14:03:00;7.93;;;3.28;;
19879;SDS011;10102;50.828;4.416;2022-12-07T14:05:30;7.40;;;3.30;;
19879;SDS011;10102;50.828;4.416;2022-12-07T14:07:58;6.72;;;3.25;;
19879;SDS011;10102;50.828;4.416;2022-12-07T14:12:59;6.28;;;3.70;;
19879;SDS011;10102;50.828;4.416;2022-12-07T14:15:28;7.78;;;3.80;;
19879;SDS011;10102;50.828;4.416;2022-12-07T14:17:59;6.40;;;2.88;;
19879;SDS011;10102;50.828;4.416;2022-12-07T14:20:38;9.05;;;2.85;;
19879;SDS011;10102;50.828;4.416;2022-12-07T14:23:19;6.03;;;2.63;;
19879;SDS011;10102;50.828;4.416;2022-12-07T14:25:49;4.20;;;2.03;;
19879;SDS011;10102;50.828;4.416;2022-12-07T14:28:29;3.63;;;2.40;;
19879;SDS011;10102;50.828;4.416;2022-12-07T14:30:59;4.38;;;2.50;;
19879;SDS011;10102;50.828;4.416;2022-12-07T14:33:26;4.45;;;2.63;;
19879;SDS011;10102;50.828;4.416;2022-12-07T14:35:52;3.95;;;2.90;;
19879;SDS011;10102;50.828;4.416;2022-12-07T14:38:22;5.65;;;3.08;;
19879;SDS011;10102;50.828;4.416;2022-12-07T14:40:49;5.03;;;3.03;;
19879;SDS011;10102;50.828;4.416;2022-12-07T14:43:17;10.50;;;3.72;;
19879;SDS011;10102;50.828;4.416;2022-12-07T14:45:43;8.65;;;3.47;;
19879;SDS011;10102;50.828;4.416;2022-12-07T14:48:12;5.68;;;3.28;;
19879;SDS011;10102;50.828;4.416;2022-12-07T14:50:49;4.20;;;3.10;;
19879;SDS011;10102;50.828;4.416;2022-12-07T14:53:18;7.15;;;2.83;;
19879;SDS011;10102;50.828;4.416;2022-12-07T14:55:52;4.57;;;2.67;;
19879;SDS011;10102;50.828;4.416;2022-12-07T14:58:17;6.90;;;2.80;;
19879;SDS011;10102;50.828;4.416;2022-12-07T15:00:43;3.33;;;2.30;;
19879;SDS011;10102;50.828;4.416;2022-12-07T15:03:09;3.22;;;2.17;;
19879;SDS011;10102;50.828;4.416;2022-12-07T15:05:35;5.45;;;2.40;;
19879;SDS011;10102;50.828;4.416;2022-12-07T15:08:02;7.82;;;2.05;;
19879;SDS011;10102;50.828;4.416;2022-12-07T15:10:29;4.90;;;2.17;;
19879;SDS011;10102;50.828;4.416;2022-12-07T15:12:58;6.43;;;2.30;;
19879;SDS011;10102;50.828;4.416;2022-12-07T15:15:45;4.90;;;2.40;;
19879;SDS011;10102;50.828;4.416;2022-12-07T15:18:11;3.15;;;2.20;;
19879;SDS011;10102;50.828;4.416;2022-12-07T15:20:37;3.95;;;2.00;;
19879;SDS011;10102;50.828;4.416;2022-12-07T15:23:03;5.28;;;2.38;;
19879;SDS011;10102;50.828;4.416;2022-12-07T15:25:28;5.18;;;2.10;;
19879;SDS011;10102;50.828;4.416;2022-12-07T15:27:54;3.88;;;2.15;;
19879;SDS011;10102;50.828;4.416;2022-12-07T15:30:20;2.03;;;1.80;;
19879;SDS011;10102;50.828;4.416;2022-12-07T15:32:48;5.75;;;2.03;;
19879;SDS011;10102;50.828;4.416;2022-12-07T15:35:15;5.85;;;2.53;;
19879;SDS011;10102;50.828;4.416;2022-12-07T15:37:43;3.35;;;2.38;;
19879;SDS011;10102;50.828;4.416;2022-12-07T15:40:09;3.65;;;2.85;;
19879;SDS011;10102;50.828;4.416;2022-12-07T15:42:36;6.47;;;2.97;;
19879;SDS011;10102;50.828;4.416;2022-12-07T15:45:02;4.50;;;2.78;;
19879;SDS011;10102;50.828;4.416;2022-12-07T15:47:40;9.68;;;2.53;;
19879;SDS011;10102;50.828;4.416;2022-12-07T15:50:11;9.30;;;3.85;;
19879;SDS011;10102;50.828;4.416;2022-12-07T15:52:38;7.18;;;2.55;;
19879;SDS011;10102;50.828;4.416;2022-12-07T15:55:04;5.35;;;3.10;;
19879;SDS011;10102;50.828;4.416;2022-12-07T15:57:31;17.38;;;3.35;;
19879;SDS011;10102;50.828;4.416;2022-12-07T15:59:58;6.72;;;3.83;;
19879;SDS011;10102;50.828;4.416;2022-12-07T16:02:24;7.47;;;3.67;;
19879;SDS011;10102;50.828;4.416;2022-12-07T16:04:50;8.68;;;3.60;;
19879;SDS011;10102;50.828;4.416;2022-12-07T16:07:17;5.63;;;3.47;;
19879;SDS011;10102;50.828;4.416;2022-12-07T16:09:43;7.28;;;4.15;;
19879;SDS011;10102;50.828;4.416;2022-12-07T16:12:11;6.30;;;3.95;;
19879;SDS011;10102;50.828;4.416;2022-12-07T16:14:38;5.72;;;3.75;;
19879;SDS011;10102;50.828;4.416;2022-12-07T16:17:05;7.95;;;4.90;;
19879;SDS011;10102;50.828;4.416;2022-12-07T16:19:31;11.50;;;5.07;;
19879;SDS011;10102;50.828;4.416;2022-12-07T16:21:57;16.65;;;5.78;;
19879;SDS011;10102;50.828;4.416;2022-12-07T16:24:23;11.75;;;5.25;;
19879;SDS011;10102;50.828;4.416;2022-12-07T16:26:49;13.30;;;5.60;;
19879;SDS011;10102;50.828;4.416;2022-12-07T16:29:15;11.23;;;5.63;;
19879;SDS011;10102;50.828;4.416;2022-12-07T16:31:43;14.88;;;5.55;;
19879;SDS011;10102;50.828;4.416;2022-12-07T16:34:08;8.00;;;5.38;;
19879;SDS011;10102;50.828;4.416;2022-12-07T16:36:34;12.38;;;6.50;;
19879;SDS011;10102;50.828;4.416;2022-12-07T16:39:00;8.73;;;5.57;;
19879;SDS011;10102;50.828;4.416;2022-12-07T16:41:26;11.95;;;6.05;;